Time;durP1;ratioP1;P1;durP2;ratioP2;P2;SDS_P1;SDS_P2;PMS_P1;PMS_P2;Temp;Humidity;BMP_temperature;BMP_pressure;BME280_temperature;BME280_humidity;BME280_pressure;Samples;Min_cycle;Max_cycle;Signal;HPM_P1;HPM_P2
2022/07/16 00:01:22;;;;;;;5.32;2.95;;;15.20;99.90;;;;;;4996720;28;20525;-66
2022/07/16 00:03:57;;;;;;;4.82;2.97;;;15.20;99.90;;;;;;4996287;28;20046;-66
2022/07/16 00:06:25;;;;;;;6.43;3.28;;;15.20;99.90;;;;;;5013414;28;20387;-66
2022/07/16 00:08:52;;;;;;;5.70;3.03;;;15.20;99.90;;;;;;4969050;28;20505;-66
2022/07/16 00:11:18;;;;;;;5.25;3.10;;;15.20;99.90;;;;;;4999086;28;20072;-66
2022/07/16 00:13:44;;;;;;;4.18;3.03;;;15.20;99.90;;;;;;5005268;28;20518;-66
2022/07/16 00:16:10;;;;;;;6.78;3.40;;;15.20;99.90;;;;;;4996948;28;20053;-68
2022/07/16 00:21:21;;;;;;;6.22;3.65;;;15.20;99.90;;;;;;4997056;28;20065;-66
2022/07/16 00:23:47;;;;;;;6.63;3.10;;;15.20;99.90;;;;;;4991529;28;20042;-65
2022/07/16 00:26:12;;;;;;;6.22;3.08;;;15.20;99.90;;;;;;5007141;28;20048;-68
2022/07/16 00:28:38;;;;;;;5.40;3.80;;;15.30;99.90;;;;;;4961433;28;20101;-67
2022/07/16 00:31:04;;;;;;;4.85;3.30;;;15.30;99.90;;;;;;5008182;28;20049;-66
2022/07/16 00:33:30;;;;;;;4.95;3.10;;;15.40;99.90;;;;;;5005598;28;20121;-67
2022/07/16 00:35:55;;;;;;;5.70;3.42;;;15.40;99.90;;;;;;4980489;28;20046;-67
2022/07/16 00:38:21;;;;;;;5.53;3.40;;;15.40;99.90;;;;;;4986807;28;20318;-66
2022/07/16 00:40:47;;;;;;;5.93;3.40;;;15.50;99.90;;;;;;4990348;28;20064;-66
2022/07/16 00:43:14;;;;;;;4.72;3.25;;;15.50;99.90;;;;;;5031603;28;20049;-66
2022/07/16 00:45:40;;;;;;;5.25;3.13;;;15.50;99.90;;;;;;4996582;28;20045;-68
2022/07/16 00:48:07;;;;;;;5.50;3.10;;;15.60;99.90;;;;;;5002660;28;20037;-65
2022/07/16 00:50:35;;;;;;;4.38;3.47;;;15.60;99.90;;;;;;5001652;28;20045;-66
2022/07/16 00:53:02;;;;;;;5.45;3.20;;;15.70;99.90;;;;;;4989449;28;20089;-66
2022/07/16 00:55:28;;;;;;;5.63;3.90;;;15.70;99.90;;;;;;4967856;28;20046;-67
2022/07/16 00:57:55;;;;;;;6.53;3.88;;;15.70;99.90;;;;;;4996201;28;20046;-66
2022/07/16 01:00:21;;;;;;;6.55;4.13;;;15.60;99.90;;;;;;4995775;28;20647;-69
2022/07/16 01:02:47;;;;;;;7.28;4.55;;;15.50;99.90;;;;;;5002722;28;20442;-66
2022/07/16 01:05:13;;;;;;;7.15;4.25;;;15.50;99.90;;;;;;4990201;28;20132;-68
2022/07/16 01:07:39;;;;;;;8.55;4.25;;;15.40;99.90;;;;;;5018169;28;20156;-66
2022/07/16 01:10:05;;;;;;;7.15;4.53;;;15.30;99.90;;;;;;4985823;28;20061;-66
2022/07/16 01:12:31;;;;;;;8.15;4.38;;;15.20;99.90;;;;;;5004461;28;20068;-67
2022/07/16 01:14:58;;;;;;;4.57;3.85;;;15.10;99.90;;;;;;4991269;28;20494;-68
2022/07/16 01:17:24;;;;;;;5.68;3.88;;;15.10;99.90;;;;;;5002341;28;20525;-66
2022/07/16 01:19:51;;;;;;;7.78;4.00;;;15.00;99.90;;;;;;5015283;28;20466;-66
2022/07/16 01:22:22;;;;;;;9.02;4.90;;;15.00;99.90;;;;;;5008632;28;20037;-67
2022/07/16 01:24:49;;;;;;;7.40;4.15;;;15.00;99.90;;;;;;4975344;28;20050;-66
2022/07/16 01:27:18;;;;;;;8.05;3.50;;;15.00;99.90;;;;;;4997771;28;20116;-67
2022/07/16 01:29:44;;;;;;;7.82;3.90;;;15.00;99.90;;;;;;4995160;28;20053;-65
2022/07/16 01:32:10;;;;;;;7.10;3.90;;;15.00;99.90;;;;;;4995200;28;20458;-66
2022/07/16 01:34:36;;;;;;;6.35;3.78;;;15.10;99.90;;;;;;4995242;28;20089;-65
2022/07/16 01:37:05;;;;;;;9.40;3.80;;;15.00;99.90;;;;;;4976994;28;20107;-67
2022/07/16 01:39:34;;;;;;;8.05;3.47;;;15.00;99.90;;;;;;4995129;28;20050;-66
2022/07/16 01:42:02;;;;;;;7.25;3.58;;;15.00;99.90;;;;;;4991709;28;20406;-66
2022/07/16 01:44:30;;;;;;;6.00;3.40;;;15.00;99.90;;;;;;4994260;28;20064;-66
2022/07/16 01:46:57;;;;;;;6.38;2.97;;;15.10;99.90;;;;;;4994672;28;20046;-68
2022/07/16 01:49:23;;;;;;;7.57;3.30;;;15.10;99.90;;;;;;4998235;28;20103;-66
2022/07/16 01:51:50;;;;;;;6.13;2.90;;;15.10;99.90;;;;;;4998832;28;20100;-71
2022/07/16 01:54:16;;;;;;;5.50;3.20;;;15.00;99.90;;;;;;4973780;28;20045;-70
2022/07/16 01:56:42;;;;;;;6.72;2.53;;;15.00;99.90;;;;;;4977490;28;20049;-66
2022/07/16 01:59:07;;;;;;;7.53;2.53;;;15.00;99.90;;;;;;4992220;28;20068;-70
2022/07/16 02:01:33;;;;;;;8.35;2.35;;;15.00;99.90;;;;;;4974311;28;20042;-66
2022/07/16 02:03:59;;;;;;;5.35;2.33;;;14.90;99.90;;;;;;4988598;28;20146;-67
2022/07/16 02:06:25;;;;;;;4.65;2.25;;;15.00;99.90;;;;;;4977719;28;20497;-66
2022/07/16 02:08:51;;;;;;;5.38;2.78;;;14.90;99.90;;;;;;4972390;28;20180;-66
2022/07/16 02:11:17;;;;;;;4.93;2.53;;;14.90;99.90;;;;;;4977278;28;20045;-66
2022/07/16 02:13:43;;;;;;;7.03;2.45;;;14.90;99.90;;;;;;5006622;28;20045;-66
2022/07/16 02:16:11;;;;;;;6.65;2.70;;;14.90;99.90;;;;;;5006140;28;20050;-66
2022/07/16 02:18:37;;;;;;;7.72;2.55;;;14.80;99.90;;;;;;5006008;28;20076;-66
2022/07/16 02:21:04;;;;;;;6.85;2.72;;;14.80;99.90;;;;;;4977353;28;20482;-65
2022/07/16 02:23:29;;;;;;;4.32;2.42;;;14.80;99.90;;;;;;4976921;28;20041;-67
2022/07/16 02:25:56;;;;;;;7.35;2.75;;;14.80;99.90;;;;;;4990157;28;20148;-68
2022/07/16 02:28:22;;;;;;;5.85;2.30;;;14.80;99.90;;;;;;4975565;28;20114;-66
2022/07/16 02:30:49;;;;;;;8.05;2.70;;;14.80;99.90;;;;;;4989444;28;20135;-66
2022/07/16 02:33:18;;;;;;;3.58;2.00;;;14.80;99.90;;;;;;4999929;28;20037;-66
2022/07/16 02:35:44;;;;;;;4.65;2.30;;;14.80;99.90;;;;;;5014129;28;20116;-66
2022/07/16 02:38:11;;;;;;;5.07;2.42;;;14.70;99.90;;;;;;4976791;28;20057;-66
2022/07/16 02:40:38;;;;;;;5.60;2.13;;;14.70;99.90;;;;;;4994146;28;20053;-66
2022/07/16 02:43:06;;;;;;;8.93;2.50;;;14.60;99.90;;;;;;4978377;28;20042;-66
2022/07/16 02:45:33;;;;;;;5.60;2.22;;;14.60;99.90;;;;;;4994460;28;20490;-68
2022/07/16 02:47:59;;;;;;;3.78;2.10;;;14.50;99.90;;;;;;4999452;28;20067;-67
2022/07/16 02:50:26;;;;;;;5.07;2.20;;;14.50;99.90;;;;;;5000437;28;20049;-68
2022/07/16 02:52:52;;;;;;;4.95;2.40;;;14.50;99.90;;;;;;4971570;28;20116;-68
2022/07/16 02:55:17;;;;;;;8.63;2.20;;;14.40;99.90;;;;;;4977901;28;20479;-70
2022/07/16 02:57:43;;;;;;;6.28;2.10;;;14.40;99.90;;;;;;4984203;28;20046;-66
2022/07/16 03:00:12;;;;;;;5.93;2.42;;;14.40;99.90;;;;;;4997238;28;20049;-66
2022/07/16 03:02:38;;;;;;;6.47;2.28;;;14.30;99.90;;;;;;5003639;28;20053;-65
2022/07/16 03:05:05;;;;;;;8.88;2.45;;;14.30;99.90;;;;;;4987767;28;20045;-67
2022/07/16 03:07:31;;;;;;;5.07;2.22;;;14.20;99.90;;;;;;5011409;28;20188;-66
2022/07/16 03:09:57;;;;;;;8.43;2.30;;;14.20;99.90;;;;;;5000746;28;20052;-65
2022/07/16 03:12:23;;;;;;;5.28;2.35;;;14.10;99.90;;;;;;5017764;28;20045;-65
2022/07/16 03:14:49;;;;;;;5.78;2.30;;;14.10;99.90;;;;;;5016989;28;20128;-65
2022/07/16 03:17:14;;;;;;;8.43;2.45;;;14.00;99.90;;;;;;4992255;28;20077;-66
2022/07/16 03:19:41;;;;;;;8.50;2.50;;;14.00;99.90;;;;;;5016857;28;20068;-65
2022/07/16 03:22:07;;;;;;;7.97;2.13;;;14.00;99.90;;;;;;5011360;28;20079;-65
2022/07/16 03:24:33;;;;;;;8.20;2.30;;;13.90;99.90;;;;;;5015672;28;20437;-66
2022/07/16 03:26:58;;;;;;;6.97;2.38;;;13.90;99.90;;;;;;5004961;28;20053;-65
2022/07/16 03:29:24;;;;;;;3.78;2.25;;;13.80;99.90;;;;;;5017560;28;20056;-66
2022/07/16 03:31:50;;;;;;;7.90;2.15;;;13.80;99.90;;;;;;4997091;28;20049;-66
2022/07/16 03:34:16;;;;;;;7.75;2.45;;;13.70;99.90;;;;;;5027037;28;20049;-65
2022/07/16 03:36:42;;;;;;;9.27;2.70;;;13.70;99.90;;;;;;5006220;28;20054;-65
2022/07/16 03:39:08;;;;;;;6.97;2.40;;;13.70;99.90;;;;;;4997818;28;20042;-66
2022/07/16 03:41:35;;;;;;;7.72;2.30;;;13.60;99.90;;;;;;4997384;28;20413;-67
2022/07/16 03:44:06;;;;;;;7.82;2.47;;;13.60;99.90;;;;;;4978166;28;20065;-66
2022/07/16 03:46:32;;;;;;;7.55;2.38;;;13.60;99.90;;;;;;5004496;28;20061;-65
2022/07/16 03:48:58;;;;;;;6.25;2.20;;;13.60;99.90;;;;;;5004807;28;20050;-65
2022/07/16 03:51:25;;;;;;;4.28;2.30;;;13.60;99.90;;;;;;4971218;28;20048;-65
2022/07/16 03:53:51;;;;;;;5.93;2.28;;;13.60;99.90;;;;;;5017121;28;20047;-66
2022/07/16 03:56:17;;;;;;;8.80;2.50;;;13.60;99.90;;;;;;5017221;28;20160;-65
2022/07/16 03:58:43;;;;;;;6.30;2.58;;;13.50;99.90;;;;;;5009828;28;20148;-66
2022/07/16 04:01:09;;;;;;;5.88;2.20;;;13.60;99.90;;;;;;4987274;28;20103;-65
2022/07/16 04:03:36;;;;;;;4.18;2.50;;;13.50;99.90;;;;;;5016638;28;20093;-66
2022/07/16 04:06:03;;;;;;;7.55;2.55;;;13.50;99.90;;;;;;5017048;28;20256;-65
2022/07/16 04:08:29;;;;;;;9.35;2.55;;;13.50;99.90;;;;;;5016630;28;20132;-67
2022/07/16 04:10:55;;;;;;;4.78;2.67;;;13.60;99.90;;;;;;5003663;28;20081;-66
2022/07/16 04:13:21;;;;;;;6.32;2.55;;;13.60;99.90;;;;;;5016554;28;20068;-66
2022/07/16 04:15:47;;;;;;;7.50;2.47;;;13.70;99.90;;;;;;4976171;28;20569;-65
2022/07/16 04:18:12;;;;;;;8.18;2.60;;;13.80;99.90;;;;;;4999952;28;20173;-65
2022/07/16 04:20:39;;;;;;;7.43;2.50;;;13.80;99.90;;;;;;4995299;28;20088;-65
2022/07/16 04:23:05;;;;;;;4.95;2.55;;;13.90;99.90;;;;;;4979501;28;20056;-66
2022/07/16 04:25:31;;;;;;;5.72;2.60;;;14.00;99.90;;;;;;5000566;28;20046;-66
2022/07/16 04:27:56;;;;;;;5.25;2.50;;;14.00;99.90;;;;;;4996910;28;20060;-65
2022/07/16 04:30:22;;;;;;;7.05;2.42;;;14.00;99.90;;;;;;4992360;28;20053;-65
2022/07/16 04:32:48;;;;;;;8.02;3.03;;;14.00;99.90;;;;;;5016348;28;20049;-65
2022/07/16 04:35:14;;;;;;;7.32;2.78;;;14.00;99.90;;;;;;4983772;28;20084;-66
2022/07/16 04:37:40;;;;;;;3.42;2.30;;;14.00;99.90;;;;;;4999808;28;20056;-66
2022/07/16 04:40:09;;;;;;;6.75;2.67;;;14.00;99.90;;;;;;5012640;28;20052;-66
2022/07/16 04:42:40;;;;;;;5.38;2.53;;;14.10;99.90;;;;;;4991154;28;20042;-65
2022/07/16 04:45:07;;;;;;;6.77;2.53;;;14.10;99.90;;;;;;4996380;28;20388;-66
2022/07/16 04:47:33;;;;;;;7.65;2.80;;;14.20;99.90;;;;;;4996487;28;20348;-65
2022/07/16 04:49:58;;;;;;;7.13;2.42;;;14.20;99.90;;;;;;4996213;28;20045;-65
2022/07/16 04:52:24;;;;;;;4.38;2.40;;;14.20;99.90;;;;;;5021922;28;20092;-65
2022/07/16 04:54:50;;;;;;;7.28;2.20;;;14.20;99.90;;;;;;4988924;28;20038;-67
2022/07/16 04:57:16;;;;;;;7.72;2.53;;;14.20;99.90;;;;;;5002995;28;20156;-67
2022/07/16 04:59:41;;;;;;;6.13;2.65;;;14.20;99.90;;;;;;4979411;28;20100;-65
2022/07/16 05:04:51;;;;;;;5.45;2.58;;;14.20;99.90;;;;;;4982609;28;20506;-66
2022/07/16 05:07:17;;;;;;;6.00;2.60;;;14.10;99.90;;;;;;4980147;28;20038;-66
2022/07/16 05:09:43;;;;;;;7.13;2.53;;;14.10;99.90;;;;;;4993218;28;20553;-66
2022/07/16 05:12:08;;;;;;;7.38;2.45;;;14.00;99.90;;;;;;5007775;28;20072;-65
2022/07/16 05:14:34;;;;;;;11.43;2.60;;;14.00;99.90;;;;;;4999031;28;20057;-66
2022/07/16 05:17:00;;;;;;;5.32;2.72;;;14.00;99.90;;;;;;4998950;28;20049;-66
2022/07/16 05:19:26;;;;;;;8.48;2.53;;;14.00;99.90;;;;;;4996647;28;20441;-68
2022/07/16 05:21:51;;;;;;;10.18;2.28;;;14.00;99.90;;;;;;5012203;28;20152;-66
2022/07/16 05:24:17;;;;;;;5.65;1.75;;;14.00;99.90;;;;;;5015303;28;20056;-66
2022/07/16 05:26:43;;;;;;;5.25;1.90;;;14.20;99.90;;;;;;4994795;28;20048;-65
2022/07/16 05:29:08;;;;;;;8.10;1.85;;;14.30;99.90;;;;;;4998496;28;20041;-65
2022/07/16 05:31:34;;;;;;;5.90;1.83;;;14.50;99.90;;;;;;4998719;28;20127;-65
2022/07/16 05:34:00;;;;;;;5.10;1.83;;;14.60;99.90;;;;;;4998847;28;20145;-65
2022/07/16 05:36:26;;;;;;;7.00;1.30;;;14.70;99.90;;;;;;4969702;28;20045;-68
2022/07/16 05:38:52;;;;;;;8.82;1.70;;;14.80;99.90;;;;;;5015238;28;20041;-65
2022/07/16 05:41:17;;;;;;;7.78;2.58;;;14.80;99.90;;;;;;5012869;28;20047;-65
2022/07/16 05:43:44;;;;;;;4.65;1.35;;;14.90;99.90;;;;;;5014943;28;20057;-68
2022/07/16 05:46:09;;;;;;;7.07;1.98;;;15.00;99.90;;;;;;5014912;28;20461;-67
2022/07/16 05:48:35;;;;;;;8.35;1.60;;;15.10;99.90;;;;;;4985471;28;20054;-65
2022/07/16 05:51:01;;;;;;;8.18;1.60;;;15.10;99.90;;;;;;5001045;28;20053;-67
2022/07/16 05:53:27;;;;;;;5.18;1.60;;;15.10;99.90;;;;;;4998621;28;20051;-67
2022/07/16 05:55:52;;;;;;;7.60;1.52;;;15.20;99.90;;;;;;4984320;28;20061;-65
2022/07/16 05:58:18;;;;;;;8.05;1.63;;;15.20;99.90;;;;;;5014480;28;20053;-65
2022/07/16 06:00:44;;;;;;;6.05;1.48;;;15.30;99.90;;;;;;4998107;28;20042;-66
2022/07/16 06:03:09;;;;;;;8.45;1.40;;;15.50;99.90;;;;;;5014917;28;20049;-67
2022/07/16 06:05:35;;;;;;;7.60;1.60;;;15.60;99.90;;;;;;4976174;28;20041;-66
2022/07/16 06:08:01;;;;;;;6.70;1.48;;;15.70;99.90;;;;;;5019630;28;20053;-67
2022/07/16 06:10:28;;;;;;;10.00;1.25;;;15.80;99.90;;;;;;4981629;28;20045;-67
2022/07/16 06:12:53;;;;;;;9.82;1.17;;;15.90;99.90;;;;;;4982273;28;20048;-66
2022/07/16 06:15:19;;;;;;;8.55;1.20;;;16.00;99.90;;;;;;5011808;28;20417;-70
2022/07/16 06:17:45;;;;;;;8.15;1.40;;;16.20;99.90;;;;;;4994697;28;20077;-67
2022/07/16 06:20:11;;;;;;;3.95;1.00;;;16.30;99.90;;;;;;4986160;28;20128;-68
2022/07/16 06:22:37;;;;;;;5.53;0.90;;;16.50;99.90;;;;;;4978414;28;20053;-66
2022/07/16 06:25:03;;;;;;;5.55;1.05;;;16.60;99.90;;;;;;4981806;28;20049;-65
2022/07/16 06:27:29;;;;;;;5.18;1.10;;;16.80;99.90;;;;;;5003600;28;20518;-66
2022/07/16 06:29:55;;;;;;;4.15;1.08;;;17.00;99.90;;;;;;4977551;28;20066;-66
2022/07/16 06:32:21;;;;;;;3.65;0.70;;;17.00;99.90;;;;;;4993809;28;20049;-66
2022/07/16 06:34:46;;;;;;;5.13;1.20;;;17.00;99.90;;;;;;5010719;28;20582;-66
2022/07/16 06:37:12;;;;;;;4.70;1.02;;;17.10;99.90;;;;;;5014314;28;20060;-67
2022/07/16 06:39:40;;;;;;;3.83;0.80;;;17.10;99.90;;;;;;5003999;28;20053;-68
2022/07/16 06:42:06;;;;;;;5.90;1.10;;;17.00;99.90;;;;;;4993635;28;20042;-67
2022/07/16 06:44:32;;;;;;;5.43;0.93;;;16.90;99.90;;;;;;5013032;28;20541;-67
2022/07/16 06:46:57;;;;;;;3.58;0.90;;;16.90;99.90;;;;;;5004651;28;20048;-66
2022/07/16 06:49:23;;;;;;;3.08;0.70;;;16.90;99.90;;;;;;5014054;28;20120;-66
2022/07/16 06:51:49;;;;;;;3.88;0.90;;;17.00;99.90;;;;;;4999234;28;20060;-69
2022/07/16 06:54:15;;;;;;;6.95;0.90;;;17.10;99.90;;;;;;4985848;28;20046;-65
2022/07/16 06:56:40;;;;;;;6.28;0.85;;;17.20;99.90;;;;;;5010643;28;20054;-66
2022/07/16 06:59:06;;;;;;;7.03;0.90;;;17.30;99.90;;;;;;5010430;28;20411;-66
2022/07/16 07:01:32;;;;;;;2.30;0.73;;;17.40;99.90;;;;;;4977766;28;20038;-66
2022/07/16 07:03:57;;;;;;;5.70;1.00;;;17.50;99.90;;;;;;4977360;28;20108;-66
2022/07/16 07:06:23;;;;;;;6.18;1.00;;;17.60;99.90;;;;;;4992949;28;20053;-67
2022/07/16 07:08:49;;;;;;;6.05;0.93;;;17.80;99.90;;;;;;5013701;28;20502;-68
2022/07/16 07:11:14;;;;;;;5.85;1.10;;;18.00;99.90;;;;;;4986596;28;20136;-66
2022/07/16 07:13:40;;;;;;;7.95;0.90;;;18.30;99.90;;;;;;4977404;28;20056;-66
2022/07/16 07:16:06;;;;;;;6.38;1.05;;;18.40;99.90;;;;;;4987239;28;20045;-68
2022/07/16 07:18:33;;;;;;;5.78;0.73;;;18.50;99.90;;;;;;4987123;28;20054;-67
2022/07/16 07:21:02;;;;;;;7.50;1.10;;;18.60;99.90;;;;;;4974172;28;20157;-72
2022/07/16 07:23:29;;;;;;;4.53;0.90;;;18.80;99.90;;;;;;4973052;28;20045;-69
2022/07/16 07:25:55;;;;;;;5.25;0.80;;;18.70;99.90;;;;;;4982351;28;20816;-67
2022/07/16 07:28:21;;;;;;;4.07;0.75;;;18.30;99.90;;;;;;5005852;28;20045;-67
2022/07/16 07:30:47;;;;;;;5.00;0.90;;;18.00;99.90;;;;;;4977243;28;20486;-68
2022/07/16 07:33:14;;;;;;;4.03;0.98;;;17.70;99.90;;;;;;4972921;28;20052;-70
2022/07/16 07:35:40;;;;;;;4.57;0.90;;;17.40;99.90;;;;;;4970934;28;20057;-66
2022/07/16 07:38:06;;;;;;;5.13;1.00;;;17.10;99.90;;;;;;4988274;28;21040;-66
2022/07/16 07:40:32;;;;;;;4.43;1.00;;;16.90;99.90;;;;;;4962562;28;20097;-68
2022/07/16 07:42:59;;;;;;;5.82;0.93;;;16.70;99.90;;;;;;4988431;28;20124;-68
2022/07/16 07:45:26;;;;;;;5.95;0.73;;;16.60;99.90;;;;;;4973630;28;20049;-67
2022/07/16 07:47:52;;;;;;;4.75;1.00;;;16.80;99.90;;;;;;4987462;28;20058;-68
2022/07/16 07:50:17;;;;;;;2.78;0.60;;;17.10;99.90;;;;;;4975847;28;20046;-67
2022/07/16 07:52:43;;;;;;;5.32;1.08;;;17.40;99.90;;;;;;4974443;28;20077;-68
2022/07/16 07:55:09;;;;;;;4.70;0.93;;;17.60;99.90;;;;;;4975782;28;20061;-72
2022/07/16 07:57:35;;;;;;;2.50;0.57;;;17.70;99.90;;;;;;4983169;28;20069;-70
2022/07/16 08:00:00;;;;;;;5.53;0.77;;;17.60;99.90;;;;;;4984105;28;20514;-70
2022/07/16 08:02:26;;;;;;;3.85;0.88;;;17.60;99.90;;;;;;4992121;28;20067;-70
2022/07/16 08:04:52;;;;;;;3.40;0.93;;;17.70;99.90;;;;;;4990617;28;20052;-72
2022/07/16 08:07:18;;;;;;;5.05;1.02;;;18.20;99.90;;;;;;4975304;28;20054;-68
2022/07/16 08:09:44;;;;;;;2.65;0.82;;;18.50;99.90;;;;;;5007581;28;20065;-67
2022/07/16 08:12:10;;;;;;;5.50;0.80;;;18.70;99.90;;;;;;5003943;28;20116;-67
2022/07/16 08:14:36;;;;;;;3.97;0.57;;;18.70;99.90;;;;;;4982503;28;20057;-69
2022/07/16 08:17:02;;;;;;;4.10;0.85;;;18.60;99.90;;;;;;4981111;28;20107;-67
2022/07/16 08:19:28;;;;;;;4.40;0.80;;;18.50;99.90;;;;;;4999646;28;20633;-67
2022/07/16 08:21:54;;;;;;;5.63;0.60;;;18.40;99.90;;;;;;5016110;28;20052;-68
2022/07/16 08:27:04;;;;;;;5.28;0.90;;;18.50;99.90;;;;;;4984288;28;20057;-68
2022/07/16 08:29:30;;;;;;;3.55;0.80;;;18.40;99.90;;;;;;4994666;28;20093;-68
2022/07/16 08:31:56;;;;;;;4.40;0.90;;;18.40;99.90;;;;;;5002110;28;20077;-69
2022/07/16 08:34:23;;;;;;;4.30;0.80;;;18.50;99.90;;;;;;4996585;28;20138;-69
2022/07/16 08:36:50;;;;;;;5.38;0.90;;;18.50;99.90;;;;;;4999861;28;20570;-68
2022/07/16 08:39:16;;;;;;;5.15;1.10;;;18.60;99.90;;;;;;4978417;28;20061;-69
2022/07/16 08:41:43;;;;;;;3.90;1.10;;;18.80;99.90;;;;;;4999952;28;20057;-68
2022/07/16 08:44:14;;;;;;;3.97;0.88;;;18.70;99.90;;;;;;5016273;28;20453;-67
2022/07/16 08:46:41;;;;;;;5.10;1.40;;;18.70;99.90;;;;;;4984156;28;20080;-70
2022/07/16 08:49:07;;;;;;;4.00;0.90;;;18.60;99.90;;;;;;5027664;28;20053;-69
2022/07/16 08:51:39;;;;;;;8.05;1.45;;;18.90;99.90;;;;;;4999211;28;20042;-67
2022/07/16 08:54:19;;;;;;;5.10;0.80;;;19.20;99.90;;;;;;5015932;28;20053;-66
2022/07/16 08:56:46;;;;;;;5.77;0.80;;;19.30;99.90;;;;;;5011443;28;20128;-67
2022/07/16 08:59:15;;;;;;;7.30;0.90;;;19.50;99.90;;;;;;5013881;28;20280;-69
2022/07/16 09:01:42;;;;;;;7.05;1.05;;;19.70;99.90;;;;;;5011025;28;20053;-67
2022/07/16 09:04:07;;;;;;;8.48;1.20;;;19.80;99.90;;;;;;5014879;28;20115;-67
2022/07/16 09:06:33;;;;;;;5.65;1.00;;;19.40;99.90;;;;;;4999401;28;20627;-67
2022/07/16 09:08:59;;;;;;;6.45;1.00;;;19.40;99.90;;;;;;5004473;28;20041;-67
2022/07/16 09:11:31;;;;;;;3.80;1.00;;;20.00;99.90;;;;;;5015307;28;20123;-67
2022/07/16 09:14:11;;;;;;;5.30;0.98;;;20.60;99.90;;;;;;5015342;28;20123;-67
2022/07/16 09:16:42;;;;;;;5.00;1.08;;;20.50;99.90;;;;;;5026841;28;20056;-67
2022/07/16 09:19:14;;;;;;;6.78;1.30;;;20.50;99.90;;;;;;5015234;28;20744;-66
2022/07/16 09:22:02;;;;;;;7.60;1.33;;;20.40;99.90;;;;;;4999738;28;20046;-66
2022/07/16 09:24:54;;;;;;;8.45;1.23;;;20.10;99.90;;;;;;4985138;28;20054;-68
2022/07/16 09:27:22;;;;;;;5.43;0.90;;;19.80;99.90;;;;;;4988936;28;20045;-69
2022/07/16 09:30:04;;;;;;;4.65;0.93;;;19.70;99.90;;;;;;5012654;28;20045;-66
2022/07/16 09:32:34;;;;;;;5.15;1.13;;;20.00;99.90;;;;;;5015116;28;20514;-67
2022/07/16 09:35:13;;;;;;;5.75;1.08;;;20.40;99.90;;;;;;5014903;28;20060;-67
2022/07/16 09:37:59;;;;;;;5.97;1.00;;;20.20;99.90;;;;;;4993394;28;20046;-67
2022/07/16 09:40:37;;;;;;;5.13;0.93;;;20.10;99.20;;;;;;5014819;28;20056;-67
2022/07/16 09:43:17;;;;;;;3.97;1.08;;;20.40;99.90;;;;;;5014094;28;20131;-67
2022/07/16 09:45:49;;;;;;;4.25;0.80;;;20.50;98.60;;;;;;5000712;28;20166;-67
2022/07/16 09:48:29;;;;;;;3.90;1.23;;;20.80;98.80;;;;;;4989242;28;20054;-69
2022/07/16 09:50:58;;;;;;;5.63;0.88;;;20.80;97.30;;;;;;4991494;28;20375;-67
2022/07/16 09:53:26;;;;;;;4.65;1.02;;;21.10;96.70;;;;;;5011183;28;20436;-69
2022/07/16 09:55:56;;;;;;;6.40;1.27;;;21.20;95.50;;;;;;4995314;28;20053;-67
2022/07/16 09:58:22;;;;;;;2.40;0.80;;;21.40;94.90;;;;;;4993018;28;20161;-67
2022/07/16 10:00:48;;;;;;;5.47;1.10;;;21.30;94.80;;;;;;4974450;28;21546;-69
2022/07/16 10:03:14;;;;;;;5.63;0.90;;;21.30;94.50;;;;;;5019755;28;20053;-67
2022/07/16 10:05:41;;;;;;;2.33;0.75;;;21.30;94.20;;;;;;4999870;28;20042;-68
2022/07/16 10:08:06;;;;;;;3.33;0.88;;;21.40;92.90;;;;;;4978503;28;20418;-67
2022/07/16 10:10:32;;;;;;;6.38;1.00;;;20.90;92.50;;;;;;4994518;28;20046;-68
2022/07/16 10:12:58;;;;;;;3.65;0.90;;;20.50;92.00;;;;;;5005683;28;20143;-67
2022/07/16 10:15:24;;;;;;;4.28;0.80;;;20.00;91.20;;;;;;5013888;28;20041;-67
2022/07/16 10:17:49;;;;;;;3.70;0.93;;;19.80;92.10;;;;;;5014048;28;20445;-70
2022/07/16 10:20:19;;;;;;;5.25;1.17;;;20.30;92.70;;;;;;4997552;28;20053;-68
2022/07/16 10:22:47;;;;;;;2.72;1.02;;;20.80;92.20;;;;;;5013866;28;20091;-68
2022/07/16 10:25:22;;;;;;;2.90;0.55;;;21.50;90.00;;;;;;4996400;28;20045;-67
2022/07/16 10:27:49;;;;;;;2.92;0.80;;;21.80;89.20;;;;;;5017104;28;20112;-68
2022/07/16 10:30:19;;;;;;;6.28;1.23;;;21.70;88.80;;;;;;4994247;28;20054;-67
2022/07/16 10:33:02;;;;;;;4.90;0.90;;;21.60;88.30;;;;;;4994475;28;20498;-67
2022/07/16 10:35:38;;;;;;;4.53;1.10;;;21.40;87.60;;;;;;4994249;28;20061;-67
2022/07/16 10:38:22;;;;;;;7.50;1.02;;;21.10;89.90;;;;;;4994429;28;20120;-67
2022/07/16 10:41:08;;;;;;;7.60;1.30;;;20.70;90.80;;;;;;4993814;28;20049;-67
2022/07/16 10:43:34;;;;;;;4.70;1.02;;;20.70;91.40;;;;;;4994147;28;20057;-68
2022/07/16 10:46:09;;;;;;;6.47;1.15;;;20.80;91.50;;;;;;5009912;28;20049;-67
2022/07/16 10:48:37;;;;;;;3.17;0.82;;;21.30;91.70;;;;;;5013890;28;20096;-67
2022/07/16 10:51:17;;;;;;;3.95;0.90;;;21.70;92.20;;;;;;5013247;28;20041;-66
2022/07/16 10:53:58;;;;;;;2.28;0.80;;;22.00;85.40;;;;;;5013673;28;20440;-67
2022/07/16 10:56:46;;;;;;;5.30;1.20;;;21.80;87.40;;;;;;4997760;28;20038;-68
2022/07/16 10:59:16;;;;;;;6.63;1.00;;;21.50;87.00;;;;;;5012933;28;20490;-67
2022/07/16 11:01:44;;;;;;;5.38;1.17;;;21.30;90.90;;;;;;5013623;28;20054;-67
2022/07/16 11:04:10;;;;;;;3.58;1.10;;;21.10;91.70;;;;;;4997108;28;20055;-67
2022/07/16 11:06:39;;;;;;;7.38;1.42;;;21.40;92.40;;;;;;5013605;28;20081;-67
2022/07/16 11:09:07;;;;;;;7.28;0.98;;;21.50;92.50;;;;;;4996937;28;20501;-67
2022/07/16 11:11:38;;;;;;;5.85;1.20;;;21.80;92.20;;;;;;5013506;28;20041;-66
2022/07/16 11:14:04;;;;;;;;;;;21.60;90.80;;;;;;4997478;28;20560;-67
2022/07/16 11:16:30;;;;;;;5.35;1.00;;;21.50;90.20;;;;;;5030146;28;20336;-67
2022/07/16 11:18:59;;;;;;;4.68;0.90;;;21.20;91.70;;;;;;5013458;28;20053;-69
2022/07/16 11:21:25;;;;;;;4.03;1.20;;;21.50;91.20;;;;;;5013171;28;20053;-67
2022/07/16 11:24:05;;;;;;;5.20;1.23;;;21.50;91.10;;;;;;5013750;28;20476;-66
2022/07/16 11:26:31;;;;;;;6.07;1.10;;;22.00;90.40;;;;;;4982178;28;20073;-67
2022/07/16 11:29:02;;;;;;;8.32;1.00;;;22.60;91.10;;;;;;4997874;28;20084;-71
2022/07/16 11:31:36;;;;;;;2.65;0.98;;;23.10;89.80;;;;;;4981526;28;20085;-67
2022/07/16 11:34:12;;;;;;;3.85;0.90;;;22.60;80.80;;;;;;4997837;28;20053;-67
2022/07/16 11:36:43;;;;;;;4.85;1.08;;;22.20;82.90;;;;;;4997786;28;20108;-70
2022/07/16 11:39:19;;;;;;;4.72;0.88;;;22.50;82.30;;;;;;4997457;28;20087;-69
2022/07/16 11:41:54;;;;;;;4.97;1.10;;;22.20;83.30;;;;;;4997925;28;20068;-67
2022/07/16 11:44:22;;;;;;;5.53;1.10;;;22.10;82.00;;;;;;4981527;28;20490;-69
2022/07/16 11:46:53;;;;;;;4.45;0.90;;;22.30;82.80;;;;;;4981573;28;20053;-66
2022/07/16 11:49:25;;;;;;;4.25;1.05;;;22.00;78.80;;;;;;4997196;28;20054;-69
2022/07/16 11:51:52;;;;;;;4.72;0.80;;;22.10;81.50;;;;;;4997302;28;20129;-65
2022/07/16 11:54:18;;;;;;;5.72;1.10;;;21.90;80.30;;;;;;4981277;28;20089;-67
2022/07/16 11:56:43;;;;;;;3.95;0.90;;;21.60;79.90;;;;;;4981384;28;20081;-66
2022/07/16 11:59:27;;;;;;;5.55;0.82;;;22.00;81.40;;;;;;4980739;28;20069;-67
2022/07/16 12:02:03;;;;;;;7.35;0.95;;;22.20;79.70;;;;;;4981388;28;20049;-66
2022/07/16 12:04:34;;;;;;;4.35;1.00;;;22.20;78.20;;;;;;4997214;28;20096;-67
2022/07/16 12:07:01;;;;;;;3.17;0.88;;;22.40;79.50;;;;;;5028320;28;20056;-66
2022/07/16 12:09:35;;;;;;;2.72;0.90;;;22.20;77.60;;;;;;5016449;28;20041;-67
2022/07/16 12:12:04;;;;;;;3.92;1.00;;;22.20;75.30;;;;;;5016730;28;20089;-68
2022/07/16 12:14:43;;;;;;;4.38;0.90;;;22.20;74.10;;;;;;5016842;28;20053;-67
2022/07/16 12:17:31;;;;;;;3.28;0.70;;;22.20;71.40;;;;;;5016441;28;20403;-66
2022/07/16 12:20:18;;;;;;;3.95;0.90;;;22.60;71.40;;;;;;4999438;28;20092;-67
2022/07/16 12:23:05;;;;;;;3.70;0.77;;;22.90;68.00;;;;;;5000033;28;20053;-67
2022/07/16 12:25:42;;;;;;;5.22;0.70;;;22.90;70.10;;;;;;4999130;28;20045;-66
2022/07/16 12:28:22;;;;;;;1.90;0.73;;;23.10;68.90;;;;;;4984202;28;20419;-67
2022/07/16 12:30:54;;;;;;;3.28;0.68;;;23.80;66.10;;;;;;4980459;28;20483;-66
2022/07/16 12:33:23;;;;;;;4.80;0.93;;;23.70;67.60;;;;;;4980437;28;20056;-67
2022/07/16 12:36:04;;;;;;;5.78;0.80;;;23.90;67.60;;;;;;4996645;28;20402;-67
2022/07/16 12:38:58;;;;;;;3.00;0.80;;;23.90;64.10;;;;;;4995609;28;20453;-67
2022/07/16 12:41:31;;;;;;;3.33;0.90;;;24.20;62.90;;;;;;4996743;28;20116;-67
2022/07/16 12:44:18;;;;;;;5.45;0.95;;;24.10;64.40;;;;;;4980389;28;20042;-68
2022/07/16 12:46:46;;;;;;;3.47;0.90;;;24.40;63.50;;;;;;4980385;28;20352;-67
2022/07/16 12:49:14;;;;;;;2.22;0.70;;;25.10;63.20;;;;;;4979753;28;20128;-68
2022/07/16 12:51:42;;;;;;;4.40;0.70;;;25.40;61.90;;;;;;4996255;28;20157;-67
2022/07/16 12:54:09;;;;;;;6.97;1.08;;;25.00;61.80;;;;;;4996375;28;20092;-67
2022/07/16 12:59:21;;;;;;;3.30;0.80;;;23.90;64.10;;;;;;4995843;28;20049;-69
2022/07/16 13:01:47;;;;;;;3.28;1.02;;;24.10;62.30;;;;;;4996627;28;20471;-67
2022/07/16 13:04:14;;;;;;;3.13;1.20;;;24.30;63.40;;;;;;4964114;28;20073;-67